Time;durP1;ratioP1;P1;durP2;ratioP2;P2;SDS_P1;SDS_P2;PMS_P1;PMS_P2;Temp;Humidity;BMP_temperature;BMP_pressure;BME280_temperature;BME280_humidity;BME280_pressure;Samples;Min_cycle;Max_cycle;Signal;HPM_P1;HPM_P2
2020/12/18 00:00:26;;;;;;;7.30;2.67;;;7.60;99.90;;;;;;5071972;28;20048;-62
2020/12/18 00:02:53;;;;;;;6.53;2.67;;;7.60;99.90;;;;;;5076401;28;20048;-62
2020/12/18 00:05:19;;;;;;;6.70;2.63;;;7.60;99.90;;;;;;5075925;28;20052;-62
2020/12/18 00:07:46;;;;;;;4.30;2.17;;;7.70;99.90;;;;;;5059931;28;20200;-62
2020/12/18 00:10:13;;;;;;;7.22;2.63;;;7.60;99.90;;;;;;5056045;28;20091;-62
2020/12/18 00:12:40;;;;;;;4.95;2.40;;;7.60;99.90;;;;;;5056199;28;20425;-62
2020/12/18 00:15:07;;;;;;;5.28;2.30;;;7.60;99.90;;;;;;5055633;28;20075;-61
2020/12/18 00:17:33;;;;;;;6.90;2.72;;;7.70;99.90;;;;;;5055610;28;20084;-62
2020/12/18 00:20:00;;;;;;;4.68;2.30;;;7.80;99.90;;;;;;5055920;28;20053;-62
2020/12/18 00:22:27;;;;;;;6.72;2.80;;;7.90;99.90;;;;;;5055602;28;20140;-62
2020/12/18 00:24:54;;;;;;;5.80;2.13;;;7.90;99.90;;;;;;5055442;28;20085;-62
2020/12/18 00:27:24;;;;;;;6.43;2.63;;;8.00;99.90;;;;;;5055489;28;20052;-62
2020/12/18 00:29:50;;;;;;;6.45;2.92;;;8.10;99.90;;;;;;5055201;28;20053;-62
2020/12/18 00:32:17;;;;;;;8.55;3.20;;;8.10;99.90;;;;;;5055001;28;20387;-62
2020/12/18 00:34:44;;;;;;;3.40;2.38;;;8.10;99.90;;;;;;5055551;28;20060;-62
2020/12/18 00:37:10;;;;;;;6.68;2.40;;;8.30;99.90;;;;;;5074604;28;20067;-62
2020/12/18 00:39:37;;;;;;;5.57;2.47;;;8.30;99.90;;;;;;5075145;28;20097;-62
2020/12/18 00:42:04;;;;;;;6.38;3.05;;;8.30;99.90;;;;;;5074848;28;20180;-62
2020/12/18 00:44:37;;;;;;;3.60;1.80;;;8.40;99.90;;;;;;5075143;28;20059;-62
2020/12/18 00:47:03;;;;;;;5.47;2.40;;;8.50;99.90;;;;;;5075670;28;20103;-62
2020/12/18 00:49:30;;;;;;;4.72;2.15;;;8.50;99.90;;;;;;5066680;28;20056;-62
2020/12/18 00:51:58;;;;;;;4.93;2.67;;;8.50;99.90;;;;;;5055121;28;20049;-62
2020/12/18 00:54:25;;;;;;;5.68;2.53;;;8.60;99.90;;;;;;5054629;28;20053;-62
2020/12/18 00:56:52;;;;;;;5.85;2.15;;;8.60;99.90;;;;;;5054935;28;20053;-62
2020/12/18 00:59:18;;;;;;;5.28;2.28;;;8.60;99.90;;;;;;5060758;28;20057;-63
2020/12/18 01:01:48;;;;;;;8.20;2.63;;;8.50;99.90;;;;;;5074407;28;20052;-63
2020/12/18 01:04:14;;;;;;;;;;;8.60;99.90;;;;;;5066598;28;20402;-64
2020/12/18 01:06:41;;;;;;;7.63;2.50;;;8.50;99.90;;;;;;5054211;28;20358;-63
2020/12/18 01:09:08;;;;;;;9.07;2.80;;;8.40;99.90;;;;;;5054270;28;20068;-63
2020/12/18 01:11:38;;;;;;;4.53;2.40;;;8.50;99.90;;;;;;5056303;28;20044;-63
2020/12/18 01:14:04;;;;;;;4.05;2.10;;;8.40;99.90;;;;;;5054266;28;20052;-63
2020/12/18 01:16:31;;;;;;;5.63;2.78;;;8.40;99.90;;;;;;5054367;28;20075;-63
2020/12/18 01:18:59;;;;;;;4.88;2.20;;;8.40;99.90;;;;;;5054106;28;20049;-63
2020/12/18 01:21:25;;;;;;;3.25;2.30;;;8.30;99.90;;;;;;5053983;28;20507;-63
2020/12/18 01:23:52;;;;;;;7.18;2.22;;;8.40;99.90;;;;;;5053993;28;20057;-63
2020/12/18 01:26:18;;;;;;;5.00;2.47;;;8.50;99.90;;;;;;5054200;28;20053;-63
2020/12/18 01:28:45;;;;;;;5.57;2.30;;;8.50;99.90;;;;;;5053794;28;20049;-63
2020/12/18 01:31:12;;;;;;;5.10;2.10;;;8.60;99.90;;;;;;5053493;28;20097;-63
2020/12/18 01:33:41;;;;;;;6.60;2.10;;;8.50;99.90;;;;;;5053570;28;20045;-63
2020/12/18 01:36:08;;;;;;;5.25;2.33;;;8.50;99.90;;;;;;5053900;28;20526;-63
2020/12/18 01:38:35;;;;;;;8.23;3.25;;;8.30;99.90;;;;;;5053579;28;20049;-63
2020/12/18 01:41:02;;;;;;;6.35;2.70;;;8.20;99.90;;;;;;5054571;28;20138;-63
2020/12/18 01:43:28;;;;;;;5.13;2.40;;;8.20;99.90;;;;;;5053504;28;20091;-63
2020/12/18 01:46:03;;;;;;;5.68;2.50;;;8.20;99.90;;;;;;5053613;28;20549;-63
2020/12/18 01:48:31;;;;;;;5.82;2.47;;;8.10;99.90;;;;;;5053550;28;20439;-63
2020/12/18 01:50:57;;;;;;;4.63;2.05;;;8.10;99.90;;;;;;5053252;28;20055;-63
2020/12/18 01:53:29;;;;;;;8.32;2.72;;;8.10;99.90;;;;;;5054415;28;20481;-63
2020/12/18 01:55:57;;;;;;;7.55;3.25;;;8.00;99.90;;;;;;5053164;28;20057;-63
2020/12/18 01:58:29;;;;;;;4.90;2.60;;;8.10;99.90;;;;;;5053140;28;20051;-61
2020/12/18 02:00:57;;;;;;;4.15;2.15;;;7.90;99.90;;;;;;5053506;28;20049;-63
2020/12/18 02:03:24;;;;;;;6.38;2.50;;;8.00;99.90;;;;;;5053139;28;20528;-63
2020/12/18 02:05:54;;;;;;;5.90;2.40;;;8.00;99.90;;;;;;5053207;28;20405;-63
2020/12/18 02:08:22;;;;;;;5.50;2.13;;;7.90;99.90;;;;;;5053861;28;20080;-63
2020/12/18 02:10:52;;;;;;;5.10;2.35;;;7.90;99.90;;;;;;5052219;28;20106;-63
2020/12/18 02:13:22;;;;;;;4.88;2.20;;;7.90;99.90;;;;;;5052913;28;20045;-63
2020/12/18 02:15:50;;;;;;;6.70;3.05;;;7.90;99.90;;;;;;5053009;28;20072;-63
2020/12/18 02:18:18;;;;;;;8.30;2.20;;;7.80;99.90;;;;;;5052884;28;20132;-63
2020/12/18 02:20:45;;;;;;;4.72;2.00;;;7.70;99.90;;;;;;5052824;28;20053;-63
2020/12/18 02:23:12;;;;;;;4.05;1.95;;;7.70;99.90;;;;;;5053828;28;20445;-63
2020/12/18 02:25:40;;;;;;;6.32;2.40;;;7.80;99.90;;;;;;5052978;28;20053;-63
2020/12/18 02:28:07;;;;;;;4.28;1.70;;;7.70;99.90;;;;;;5052884;28;20494;-63
2020/12/18 02:30:36;;;;;;;6.00;2.10;;;7.70;99.90;;;;;;5052568;28;20080;-63
2020/12/18 02:33:08;;;;;;;6.65;2.50;;;7.70;99.90;;;;;;5052699;28;20482;-63
2020/12/18 02:35:35;;;;;;;5.90;2.17;;;7.70;99.90;;;;;;5052317;28;20099;-63
2020/12/18 02:38:02;;;;;;;4.28;2.13;;;7.70;99.90;;;;;;5053482;28;20089;-63
2020/12/18 02:40:29;;;;;;;4.50;1.88;;;7.70;99.90;;;;;;5052724;28;20108;-63
2020/12/18 02:42:55;;;;;;;5.25;2.17;;;7.60;99.90;;;;;;5052700;28;20501;-63
2020/12/18 02:45:23;;;;;;;6.50;2.50;;;7.60;99.90;;;;;;5053245;28;20052;-63
2020/12/18 02:47:50;;;;;;;6.68;2.17;;;7.70;99.90;;;;;;5054367;28;20045;-63
2020/12/18 02:50:16;;;;;;;4.75;2.33;;;7.60;99.90;;;;;;5072165;28;20087;-62
2020/12/18 02:52:43;;;;;;;6.25;2.13;;;7.60;99.90;;;;;;5072749;28;20515;-62
2020/12/18 02:55:09;;;;;;;6.72;2.58;;;7.60;99.90;;;;;;5072806;28;20059;-63
2020/12/18 02:57:36;;;;;;;7.53;2.65;;;7.50;99.90;;;;;;5072576;28;20529;-63
2020/12/18 03:00:04;;;;;;;6.68;1.95;;;7.50;99.90;;;;;;5072418;28;20087;-63
2020/12/18 03:02:32;;;;;;;4.78;2.17;;;7.40;99.90;;;;;;5064115;28;20087;-63
2020/12/18 03:04:58;;;;;;;5.00;1.73;;;7.40;99.90;;;;;;5052430;28;20406;-63
2020/12/18 03:07:25;;;;;;;4.50;2.25;;;7.40;99.90;;;;;;5053254;28;20117;-62
2020/12/18 03:09:51;;;;;;;3.40;1.80;;;7.40;99.90;;;;;;5052378;28;20107;-63
2020/12/18 03:12:18;;;;;;;6.00;2.10;;;7.30;99.90;;;;;;5052446;28;20128;-63
2020/12/18 03:14:44;;;;;;;5.22;1.90;;;7.40;99.90;;;;;;5052655;28;20057;-63
2020/12/18 03:17:11;;;;;;;7.47;2.15;;;7.40;99.90;;;;;;5052821;28;20382;-63
2020/12/18 03:19:39;;;;;;;6.88;2.45;;;7.40;99.90;;;;;;5052760;28;20084;-63
2020/12/18 03:22:05;;;;;;;5.70;1.90;;;7.30;99.90;;;;;;5054070;28;20056;-63
2020/12/18 03:24:32;;;;;;;5.47;1.83;;;7.30;99.90;;;;;;5056880;28;20045;-63
2020/12/18 03:26:58;;;;;;;3.92;1.77;;;7.30;99.90;;;;;;5056562;28;20080;-63
2020/12/18 03:29:25;;;;;;;4.88;2.08;;;7.40;99.90;;;;;;5056590;28;20418;-63
2020/12/18 03:31:51;;;;;;;5.93;2.50;;;7.40;99.90;;;;;;5055980;28;20084;-62
2020/12/18 03:34:18;;;;;;;5.70;1.85;;;7.30;99.90;;;;;;5056136;28;20505;-63
2020/12/18 03:36:48;;;;;;;4.20;2.03;;;7.30;99.90;;;;;;5056591;28;20134;-63
2020/12/18 03:39:15;;;;;;;6.00;2.20;;;7.30;99.90;;;;;;5055979;28;20045;-62
2020/12/18 03:41:41;;;;;;;7.70;2.42;;;7.30;99.90;;;;;;5055902;28;20489;-62
2020/12/18 03:44:08;;;;;;;6.05;2.60;;;7.20;99.90;;;;;;5056041;28;20056;-62
2020/12/18 03:46:34;;;;;;;6.05;2.80;;;7.20;99.90;;;;;;5056689;28;20076;-62
2020/12/18 03:49:01;;;;;;;5.72;2.40;;;7.20;99.90;;;;;;5056106;28;20052;-63
2020/12/18 03:51:28;;;;;;;8.43;2.45;;;7.20;99.90;;;;;;5056037;28;20053;-62
2020/12/18 03:53:55;;;;;;;6.35;2.63;;;7.10;99.90;;;;;;5055722;28;20053;-63
2020/12/18 03:56:21;;;;;;;9.50;2.88;;;7.20;99.90;;;;;;5055846;28;20044;-63
2020/12/18 03:58:48;;;;;;;6.40;2.60;;;7.20;99.90;;;;;;5059119;28;20079;-63
2020/12/18 04:01:15;;;;;;;9.10;3.13;;;7.20;99.90;;;;;;5075965;28;20125;-63
2020/12/18 04:03:41;;;;;;;6.43;2.80;;;7.10;99.90;;;;;;5075923;28;20060;-62
2020/12/18 04:06:08;;;;;;;5.95;2.40;;;7.10;99.90;;;;;;5075710;28;20457;-62
2020/12/18 04:08:34;;;;;;;5.93;2.75;;;7.10;99.90;;;;;;5068791;28;20099;-63
2020/12/18 04:11:02;;;;;;;4.97;2.65;;;7.10;99.90;;;;;;5055466;28;20045;-63
2020/12/18 04:13:28;;;;;;;7.10;2.80;;;7.10;99.90;;;;;;5055280;28;20048;-63
2020/12/18 04:15:55;;;;;;;6.65;2.63;;;7.10;99.90;;;;;;5055268;28;20080;-63
2020/12/18 04:18:21;;;;;;;7.20;2.92;;;7.10;99.90;;;;;;5054992;28;20138;-63
2020/12/18 04:20:48;;;;;;;7.55;2.42;;;7.10;99.90;;;;;;5054999;28;20052;-63
2020/12/18 04:23:14;;;;;;;7.18;2.70;;;7.20;99.90;;;;;;5055717;28;20052;-63
2020/12/18 04:25:41;;;;;;;7.00;3.05;;;7.10;99.90;;;;;;5054919;28;20052;-63
2020/12/18 04:28:08;;;;;;;4.25;2.28;;;7.10;99.90;;;;;;5055373;28;20076;-63
2020/12/18 04:30:35;;;;;;;7.88;2.97;;;7.00;99.90;;;;;;5055173;28;20053;-63
2020/12/18 04:33:04;;;;;;;7.05;3.10;;;7.00;99.90;;;;;;5054084;28;20053;-63
2020/12/18 04:35:31;;;;;;;5.85;2.55;;;7.00;99.90;;;;;;5054576;28;20147;-62
2020/12/18 04:37:57;;;;;;;5.90;2.60;;;7.00;99.90;;;;;;5056060;28;20091;-63
2020/12/18 04:40:26;;;;;;;6.13;2.50;;;7.00;99.90;;;;;;5054584;28;20482;-62
2020/12/18 04:42:56;;;;;;;7.40;3.10;;;7.00;99.90;;;;;;5054604;28;20045;-63
2020/12/18 04:45:23;;;;;;;5.20;2.88;;;7.00;99.90;;;;;;5054744;28;20045;-62
2020/12/18 04:47:54;;;;;;;6.30;2.45;;;6.90;99.90;;;;;;5055553;28;20085;-62
2020/12/18 04:50:21;;;;;;;6.28;2.72;;;7.00;99.90;;;;;;5054469;28;20056;-62
2020/12/18 04:52:49;;;;;;;8.18;2.55;;;7.00;99.90;;;;;;5054474;28;20053;-62
2020/12/18 04:55:18;;;;;;;5.82;2.80;;;7.00;99.90;;;;;;5054736;28;20056;-62
2020/12/18 04:57:47;;;;;;;9.10;3.13;;;7.00;99.90;;;;;;5055142;28;20479;-62
2020/12/18 05:00:14;;;;;;;8.13;3.22;;;6.90;99.90;;;;;;5068652;28;20533;-63
2020/12/18 05:02:41;;;;;;;6.15;2.72;;;6.90;99.90;;;;;;5074276;28;20094;-62
2020/12/18 05:05:10;;;;;;;6.35;2.42;;;6.90;99.90;;;;;;5061863;28;20518;-62
2020/12/18 05:07:36;;;;;;;7.82;2.70;;;6.90;99.90;;;;;;5054049;28;20045;-62
2020/12/18 05:10:09;;;;;;;10.05;2.63;;;6.90;99.90;;;;;;5057835;28;20092;-62
2020/12/18 05:12:36;;;;;;;6.32;2.55;;;7.00;99.90;;;;;;5067079;28;20049;-63
2020/12/18 05:15:03;;;;;;;9.23;2.83;;;7.00;99.90;;;;;;5054010;28;20049;-62
2020/12/18 05:17:30;;;;;;;6.95;2.42;;;7.00;99.90;;;;;;5054076;28;20048;-62
2020/12/18 05:19:58;;;;;;;6.45;3.00;;;7.00;99.90;;;;;;5053782;28;20455;-62
2020/12/18 05:22:25;;;;;;;6.55;2.42;;;7.00;99.90;;;;;;5054159;28;20110;-63
2020/12/18 05:24:53;;;;;;;6.25;2.58;;;7.00;99.90;;;;;;5053784;28;20053;-62
2020/12/18 05:27:21;;;;;;;9.48;2.53;;;7.00;99.90;;;;;;5054711;28;20045;-63
2020/12/18 05:29:48;;;;;;;5.80;2.50;;;6.90;99.90;;;;;;5053769;28;20051;-62
2020/12/18 05:32:16;;;;;;;5.28;2.38;;;6.90;99.90;;;;;;5053466;28;20508;-63
2020/12/18 05:34:43;;;;;;;3.97;2.15;;;6.90;99.90;;;;;;5053494;28;20489;-62
2020/12/18 05:37:12;;;;;;;12.43;2.67;;;6.90;99.90;;;;;;5053694;28;20056;-62
2020/12/18 05:39:40;;;;;;;9.52;2.97;;;6.90;99.90;;;;;;5053326;28;20048;-63
2020/12/18 05:42:07;;;;;;;5.32;2.65;;;6.90;99.90;;;;;;5053733;28;20111;-63
2020/12/18 05:44:34;;;;;;;5.70;2.15;;;6.90;99.90;;;;;;5053331;28;20061;-62
2020/12/18 05:47:06;;;;;;;8.48;2.85;;;6.90;99.90;;;;;;5053860;28;20065;-63
2020/12/18 05:49:34;;;;;;;5.78;2.30;;;6.90;99.90;;;;;;5053239;28;20052;-63
2020/12/18 05:52:02;;;;;;;6.45;2.22;;;6.90;99.90;;;;;;5053532;28;20080;-62
2020/12/18 05:54:34;;;;;;;5.78;2.13;;;6.90;99.90;;;;;;5053136;28;20056;-63
2020/12/18 05:57:10;;;;;;;4.72;2.08;;;6.90;99.90;;;;;;5060781;28;20084;-62
2020/12/18 05:59:41;;;;;;;8.73;2.35;;;7.00;99.90;;;;;;5072828;28;20049;-62
2020/12/18 06:02:12;;;;;;;6.15;2.13;;;7.00;99.90;;;;;;5073516;28;20418;-62
2020/12/18 06:04:41;;;;;;;6.85;2.30;;;7.00;99.90;;;;;;5073212;28;20134;-63
2020/12/18 06:07:11;;;;;;;5.03;1.80;;;7.00;99.90;;;;;;5073088;28;20048;-62
2020/12/18 06:09:40;;;;;;;6.78;2.78;;;6.90;99.90;;;;;;5073241;28;20045;-62
2020/12/18 06:12:07;;;;;;;4.50;2.03;;;6.90;99.90;;;;;;5062333;28;20049;-63
2020/12/18 06:14:34;;;;;;;6.25;2.30;;;6.90;99.90;;;;;;5053200;28;20506;-63
2020/12/18 06:17:07;;;;;;;6.18;2.90;;;7.00;99.90;;;;;;5052928;28;20088;-63
2020/12/18 06:19:38;;;;;;;6.45;2.42;;;7.00;99.90;;;;;;5052852;28;20053;-62
2020/12/18 06:22:07;;;;;;;5.93;2.58;;;6.90;99.90;;;;;;5052686;28;20478;-62
2020/12/18 06:24:41;;;;;;;8.25;2.03;;;7.00;99.90;;;;;;5052633;28;20053;-62
2020/12/18 06:27:12;;;;;;;4.97;2.65;;;6.90;99.90;;;;;;5053698;28;20052;-63
2020/12/18 06:29:39;;;;;;;6.05;2.30;;;6.90;99.90;;;;;;5060580;28;20041;-62
2020/12/18 06:32:22;;;;;;;5.85;2.60;;;7.00;99.90;;;;;;5055698;28;20063;-62
2020/12/18 06:34:49;;;;;;;5.10;2.22;;;6.90;99.90;;;;;;5052707;28;20094;-63
2020/12/18 06:37:31;;;;;;;5.43;2.63;;;7.00;99.90;;;;;;5052848;28;20459;-63
2020/12/18 06:39:59;;;;;;;5.38;2.30;;;7.00;99.90;;;;;;5050751;28;20045;-63
2020/12/18 06:42:27;;;;;;;4.80;2.08;;;7.10;99.90;;;;;;5052537;28;20080;-63
2020/12/18 06:44:57;;;;;;;5.25;2.30;;;7.10;99.90;;;;;;5053037;28;20084;-62
2020/12/18 06:47:34;;;;;;;8.95;2.25;;;7.00;99.90;;;;;;5052517;28;20102;-63
2020/12/18 06:50:04;;;;;;;6.40;2.00;;;7.10;99.90;;;;;;5052580;28;20084;-63
2020/12/18 06:52:48;;;;;;;6.60;2.20;;;7.10;99.90;;;;;;5053073;28;20123;-63
2020/12/18 06:55:33;;;;;;;5.35;1.98;;;7.10;99.90;;;;;;5052803;28;20138;-62
2020/12/18 06:58:15;;;;;;;4.80;2.45;;;7.10;99.90;;;;;;5055355;28;20045;-63
2020/12/18 07:00:50;;;;;;;7.32;2.08;;;7.20;99.90;;;;;;5074890;28;20110;-63
2020/12/18 07:03:47;;;;;;;5.10;2.17;;;7.20;99.90;;;;;;5062887;28;20079;-63
2020/12/18 07:06:23;;;;;;;6.60;2.22;;;7.20;99.90;;;;;;5056363;28;20071;-62
2020/12/18 07:08:50;;;;;;;6.10;2.22;;;7.20;99.90;;;;;;5056448;28;20111;-62
2020/12/18 07:11:19;;;;;;;5.38;2.83;;;7.20;99.90;;;;;;5056468;28;20102;-63
2020/12/18 07:13:47;;;;;;;7.28;3.47;;;7.30;99.90;;;;;;5056390;28;20069;-62
2020/12/18 07:16:15;;;;;;;5.75;2.47;;;7.30;99.90;;;;;;5056227;28;20049;-63
2020/12/18 07:18:45;;;;;;;7.63;2.60;;;7.30;99.90;;;;;;5058030;28;20052;-63
2020/12/18 07:21:13;;;;;;;5.05;2.42;;;7.30;99.90;;;;;;5056017;28;20052;-62
2020/12/18 07:23:42;;;;;;;4.85;2.10;;;7.30;99.90;;;;;;5056192;28;20063;-63
2020/12/18 07:26:10;;;;;;;8.00;2.50;;;7.30;99.90;;;;;;5059676;28;20052;-63
2020/12/18 07:28:40;;;;;;;6.43;2.28;;;7.40;99.90;;;;;;5060157;28;20048;-63
2020/12/18 07:31:16;;;;;;;5.13;2.22;;;7.40;99.90;;;;;;5075852;28;20135;-63
2020/12/18 07:33:43;;;;;;;6.75;2.20;;;7.50;99.90;;;;;;5075950;28;20084;-63
2020/12/18 07:36:11;;;;;;;4.95;2.20;;;7.40;99.90;;;;;;5075986;28;20044;-63
2020/12/18 07:38:38;;;;;;;4.35;2.10;;;7.50;99.90;;;;;;5076185;28;20048;-63
2020/12/18 07:41:06;;;;;;;4.93;2.58;;;7.50;99.90;;;;;;5076124;28;20477;-63
2020/12/18 07:43:35;;;;;;;4.97;2.30;;;7.50;99.90;;;;;;5068930;28;20489;-63
2020/12/18 07:46:05;;;;;;;5.05;1.80;;;7.60;99.90;;;;;;5055557;28;20072;-63
2020/12/18 07:48:33;;;;;;;5.68;2.00;;;7.60;99.90;;;;;;5055838;28;20045;-63
2020/12/18 07:51:02;;;;;;;5.45;2.33;;;7.70;99.90;;;;;;5055712;28;20049;-62
2020/12/18 07:53:30;;;;;;;4.28;2.50;;;7.70;99.90;;;;;;5055928;28;20502;-63
2020/12/18 07:56:02;;;;;;;5.80;2.45;;;7.80;99.90;;;;;;5067780;28;20494;-63
2020/12/18 07:58:29;;;;;;;6.78;2.97;;;7.90;99.90;;;;;;5057280;28;20091;-62
2020/12/18 08:01:11;;;;;;;4.75;2.45;;;7.80;99.90;;;;;;5062197;28;20044;-63
2020/12/18 08:03:44;;;;;;;5.03;1.95;;;7.90;99.90;;;;;;5065339;28;20052;-63
2020/12/18 08:06:17;;;;;;;5.13;1.90;;;8.00;99.90;;;;;;5075565;28;20063;-63
2020/12/18 08:08:49;;;;;;;4.53;2.20;;;8.20;99.90;;;;;;5056622;28;20052;-63
2020/12/18 08:11:16;;;;;;;7.03;1.90;;;8.20;99.90;;;;;;5056381;28;20053;-63
2020/12/18 08:13:43;;;;;;;4.20;1.70;;;8.20;99.90;;;;;;5055447;28;20081;-63
2020/12/18 08:16:13;;;;;;;4.57;1.65;;;8.30;99.90;;;;;;5063647;28;20045;-63
2020/12/18 08:18:44;;;;;;;6.82;1.52;;;8.40;99.90;;;;;;5066777;28;20071;-63
2020/12/18 08:21:10;;;;;;;6.13;1.67;;;8.40;99.90;;;;;;5066897;28;20090;-63
2020/12/18 08:23:44;;;;;;;4.40;1.60;;;8.60;99.90;;;;;;5074819;28;20080;-63
2020/12/18 08:26:11;;;;;;;6.85;1.95;;;8.90;99.90;;;;;;5074890;28;20095;-63
2020/12/18 08:28:39;;;;;;;7.30;2.13;;;9.40;99.90;;;;;;5074855;28;20048;-63
2020/12/18 08:31:09;;;;;;;4.35;1.63;;;10.20;99.90;;;;;;5062531;28;20083;-63
2020/12/18 08:33:46;;;;;;;6.25;1.85;;;11.10;99.90;;;;;;5054896;28;20094;-63
2020/12/18 08:36:14;;;;;;;6.88;1.95;;;11.70;99.90;;;;;;5054909;28;20063;-63
2020/12/18 08:38:40;;;;;;;4.00;1.77;;;12.10;99.90;;;;;;5054749;28;20139;-63
2020/12/18 08:41:09;;;;;;;6.00;2.00;;;12.40;99.90;;;;;;5054759;28;20045;-63
2020/12/18 08:43:36;;;;;;;5.30;2.30;;;12.60;99.90;;;;;;5054784;28;20055;-63
2020/12/18 08:46:02;;;;;;;4.00;1.40;;;13.00;99.90;;;;;;5055913;28;20094;-63
2020/12/18 08:48:30;;;;;;;2.97;1.42;;;13.30;99.90;;;;;;5054456;28;20482;-63
2020/12/18 08:51:02;;;;;;;6.25;2.08;;;13.30;99.90;;;;;;5054521;28;20056;-63
2020/12/18 08:53:38;;;;;;;2.65;1.52;;;13.00;99.90;;;;;;5054827;28;20084;-63
2020/12/18 08:56:06;;;;;;;2.85;1.23;;;13.80;99.90;;;;;;5054484;28;20102;-64
2020/12/18 08:58:33;;;;;;;3.22;1.58;;;15.00;99.90;;;;;;5054694;28;20135;-64
2020/12/18 09:01:01;;;;;;;4.45;1.60;;;15.00;99.90;;;;;;5062191;28;20052;-64
2020/12/18 09:03:40;;;;;;;3.83;1.70;;;15.80;99.90;;;;;;5054212;28;20478;-64
2020/12/18 09:06:11;;;;;;;5.72;1.70;;;16.60;99.90;;;;;;5073070;28;20488;-64
2020/12/18 09:08:38;;;;;;;7.43;2.45;;;16.60;99.40;;;;;;5074522;28;20049;-64
2020/12/18 09:11:04;;;;;;;2.90;1.70;;;16.80;97.70;;;;;;5073974;28;20090;-64
2020/12/18 09:13:31;;;;;;;2.58;1.50;;;17.40;95.80;;;;;;5073887;28;20048;-64
2020/12/18 09:16:06;;;;;;;6.63;1.90;;;16.30;96.40;;;;;;5074092;28;20456;-64
2020/12/18 09:18:34;;;;;;;3.33;1.65;;;16.80;96.00;;;;;;5073423;28;20049;-64
2020/12/18 09:21:12;;;;;;;4.57;1.70;;;16.60;95.70;;;;;;5073418;28;20052;-64
2020/12/18 09:23:40;;;;;;;5.03;2.58;;;17.50;94.40;;;;;;5073909;28;20052;-64
2020/12/18 09:26:07;;;;;;;4.70;1.70;;;17.20;94.40;;;;;;5073778;28;20055;-64
2020/12/18 09:28:38;;;;;;;4.15;1.58;;;16.30;95.50;;;;;;5073854;28;20074;-64
2020/12/18 09:31:09;;;;;;;4.53;1.70;;;15.80;96.30;;;;;;5073449;28;20053;-64
2020/12/18 09:33:37;;;;;;;4.22;2.00;;;16.20;96.70;;;;;;5070537;28;20124;-64
2020/12/18 09:36:09;;;;;;;3.70;1.52;;;16.90;95.20;;;;;;5054139;28;20064;-64
2020/12/18 09:38:37;;;;;;;3.30;1.60;;;16.70;94.00;;;;;;5056062;28;20080;-64
2020/12/18 09:41:05;;;;;;;3.77;1.67;;;15.50;96.50;;;;;;5053564;28;20059;-64
2020/12/18 09:43:32;;;;;;;5.40;2.05;;;15.60;97.20;;;;;;5053826;28;20853;-64
2020/12/18 09:45:59;;;;;;;3.05;1.92;;;16.00;96.20;;;;;;5053809;28;20073;-64
2020/12/18 09:48:26;;;;;;;2.47;1.40;;;16.00;96.20;;;;;;5053440;28;20129;-64
2020/12/18 09:50:55;;;;;;;3.90;1.77;;;16.70;94.60;;;;;;5053338;28;20494;-64
2020/12/18 09:53:23;;;;;;;3.80;1.77;;;16.80;94.00;;;;;;5054414;28;20405;-64
2020/12/18 09:55:50;;;;;;;4.25;1.50;;;15.70;95.50;;;;;;5054108;28;20052;-64
2020/12/18 09:58:17;;;;;;;4.25;1.40;;;14.90;98.10;;;;;;5058769;28;20486;-64
2020/12/18 10:00:44;;;;;;;3.08;1.38;;;15.00;98.00;;;;;;5071771;28;20055;-64
2020/12/18 10:03:10;;;;;;;4.10;1.85;;;14.10;99.90;;;;;;5069094;28;20088;-64
2020/12/18 10:05:37;;;;;;;3.45;1.65;;;13.30;99.90;;;;;;5052963;28;20080;-64
2020/12/18 10:08:04;;;;;;;2.53;1.00;;;13.30;99.90;;;;;;5053285;28;20490;-64
2020/12/18 10:10:30;;;;;;;3.25;1.30;;;13.00;99.90;;;;;;5053214;28;20461;-64
2020/12/18 10:12:59;;;;;;;4.05;1.77;;;12.90;99.90;;;;;;5053039;28;20056;-64
2020/12/18 10:15:26;;;;;;;2.20;1.20;;;12.20;99.90;;;;;;5056836;28;20393;-64
2020/12/18 10:17:53;;;;;;;2.53;1.92;;;12.40;99.90;;;;;;5073200;28;20055;-63
2020/12/18 10:20:20;;;;;;;3.95;2.47;;;12.70;99.90;;;;;;5073247;28;20045;-64
2020/12/18 10:22:46;;;;;;;4.35;2.42;;;13.70;99.90;;;;;;5073255;28;20052;-63
2020/12/18 10:25:13;;;;;;;2.65;2.38;;;15.60;99.90;;;;;;5073128;28;20052;-64
2020/12/18 10:27:40;;;;;;;4.82;3.00;;;16.50;98.50;;;;;;5072846;28;20051;-64
2020/12/18 10:30:08;;;;;;;3.95;3.65;;;17.00;95.40;;;;;;5073349;28;20078;-64
2020/12/18 10:32:35;;;;;;;3.92;2.22;;;17.20;93.10;;;;;;5069142;28;20060;-64
2020/12/18 10:35:02;;;;;;;3.10;2.08;;;16.40;94.80;;;;;;5073371;28;20052;-64
2020/12/18 10:37:29;;;;;;;4.30;2.55;;;15.80;96.00;;;;;;5073435;28;20071;-64
2020/12/18 10:39:55;;;;;;;2.40;2.20;;;15.10;97.70;;;;;;5072680;28;20049;-64
2020/12/18 10:42:22;;;;;;;5.05;3.80;;;14.40;99.10;;;;;;5073243;28;20048;-64
2020/12/18 10:44:49;;;;;;;4.50;4.10;;;15.30;98.40;;;;;;5073156;28;20049;-64
2020/12/18 10:47:18;;;;;;;3.80;3.50;;;16.70;95.80;;;;;;5073321;28;20131;-64
2020/12/18 10:49:47;;;;;;;3.92;3.60;;;16.50;94.80;;;;;;5060557;28;20500;-64
2020/12/18 10:52:14;;;;;;;3.92;3.63;;;16.40;94.50;;;;;;5059338;28;20539;-64
2020/12/18 10:54:41;;;;;;;4.00;3.60;;;16.80;93.40;;;;;;5073214;28;20406;-63
2020/12/18 10:57:09;;;;;;;4.28;3.88;;;17.50;92.50;;;;;;5073034;28;20080;-63
2020/12/18 10:59:36;;;;;;;8.98;8.40;;;17.70;91.30;;;;;;5072565;28;20048;-63
2020/12/18 11:02:03;;;;;;;9.65;9.05;;;17.90;90.30;;;;;;5073269;28;20060;-63
2020/12/18 11:04:33;;;;;;;11.45;10.85;;;17.90;90.20;;;;;;5072925;28;20049;-63
2020/12/18 11:07:00;;;;;;;7.00;6.60;;;18.50;86.40;;;;;;5072841;28;20416;-63
2020/12/18 11:09:26;;;;;;;5.95;5.38;;;18.70;84.60;;;;;;5072580;28;20540;-63
2020/12/18 11:11:55;;;;;;;5.72;5.25;;;19.50;82.20;;;;;;5072530;28;20428;-63
2020/12/18 11:14:24;;;;;;;7.70;7.20;;;19.60;79.80;;;;;;5071590;28;20135;-63
2020/12/18 11:16:54;;;;;;;9.93;9.32;;;18.80;79.80;;;;;;5072602;28;20151;-63
2020/12/18 11:19:20;;;;;;;48.38;46.33;;;20.10;78.00;;;;;;5072288;28;20064;-63
2020/12/18 11:21:48;;;;;;;29.20;28.00;;;19.80;75.70;;;;;;5072296;28;20149;-63
2020/12/18 11:24:15;;;;;;;39.63;37.90;;;20.50;72.20;;;;;;5072289;28;20059;-63
2020/12/18 11:26:42;;;;;;;18.83;17.90;;;19.60;73.70;;;;;;5072283;28;20044;-63
2020/12/18 11:29:08;;;;;;;15.80;15.05;;;19.70;74.40;;;;;;5072485;28;20531;-63
2020/12/18 11:31:39;;;;;;;16.30;15.40;;;20.10;74.00;;;;;;5072024;28;20087;-63
2020/12/18 11:34:05;;;;;;;35.58;33.92;;;20.50;72.00;;;;;;5072302;28;20045;-63
2020/12/18 11:36:33;;;;;;;1999.90;999.90;;;19.90;71.50;;;;;;5072044;28;20079;-63
2020/12/18 11:39:04;;;;;;;1999.90;999.90;;;20.30;70.70;;;;;;5071922;28;20446;-63
2020/12/18 11:41:31;;;;;;;50.42;48.30;;;20.20;70.10;;;;;;5060998;28;20439;-63
2020/12/18 11:43:58;;;;;;;18.35;17.35;;;20.80;68.30;;;;;;5055057;28;20399;-63
2020/12/18 11:46:24;;;;;;;26.45;25.35;;;21.20;67.60;;;;;;5055625;28;20089;-64
2020/12/18 11:48:51;;;;;;;16.73;15.93;;;20.50;67.40;;;;;;5066249;28;20057;-64
2020/12/18 11:51:18;;;;;;;32.60;31.20;;;20.80;67.30;;;;;;5074934;28;20044;-66
2020/12/18 11:53:44;;;;;;;59.00;56.65;;;21.40;65.40;;;;;;5056120;28;20052;-63
2020/12/18 11:56:12;;;;;;;45.83;43.92;;;21.70;64.40;;;;;;5055521;28;20095;-63
2020/12/18 11:58:38;;;;;;;30.48;29.13;;;20.70;65.70;;;;;;5056569;28;20081;-63
2020/12/18 12:01:05;;;;;;;44.80;42.67;;;20.30;66.20;;;;;;5075458;28;20087;-63
2020/12/18 12:03:32;;;;;;;38.28;36.63;;;20.20;65.90;;;;;;5075809;28;20095;-63
2020/12/18 12:06:00;;;;;;;18.27;17.45;;;19.70;67.40;;;;;;5075390;28;20084;-63
2020/12/18 12:08:26;;;;;;;23.50;22.40;;;19.40;69.00;;;;;;5059468;28;20060;-63
2020/12/18 12:10:53;;;;;;;30.13;28.83;;;20.20;67.00;;;;;;5056696;28;20520;-63
2020/12/18 12:13:24;;;;;;;16.95;16.20;;;20.70;66.20;;;;;;5055667;28;20438;-63
2020/12/18 12:15:51;;;;;;;26.10;25.00;;;21.50;63.50;;;;;;5055518;28;20060;-63
2020/12/18 12:18:17;;;;;;;44.47;42.70;;;21.50;61.80;;;;;;5055034;28;20174;-63
2020/12/18 12:20:44;;;;;;;16.42;15.65;;;21.10;62.50;;;;;;5055034;28;20084;-63
2020/12/18 12:23:10;;;;;;;10.68;10.13;;;21.60;62.50;;;;;;5055327;28;20060;-63
2020/12/18 12:25:37;;;;;;;53.03;50.80;;;21.60;62.50;;;;;;5055350;28;20053;-63
2020/12/18 12:28:04;;;;;;;32.53;31.02;;;21.00;62.30;;;;;;5055036;28;20478;-63
2020/12/18 12:30:32;;;;;;;52.83;50.58;;;21.10;62.90;;;;;;5054998;28;20060;-63
2020/12/18 12:32:58;;;;;;;135.93;130.35;;;19.80;64.70;;;;;;5054661;28;20171;-63
2020/12/18 12:35:26;;;;;;;15.52;14.73;;;19.40;65.30;;;;;;5054976;28;20147;-63
2020/12/18 12:37:53;;;;;;;10.60;10.02;;;19.00;67.70;;;;;;5054756;28;20052;-63
2020/12/18 12:40:20;;;;;;;7.28;6.88;;;19.90;65.60;;;;;;5073435;28;20048;-63
2020/12/18 12:42:46;;;;;;;9.25;6.75;;;20.10;64.70;;;;;;5074711;28;20049;-63
2020/12/18 12:45:13;;;;;;;13.52;12.80;;;20.00;64.60;;;;;;5074712;28;20048;-63
2020/12/18 12:47:41;;;;;;;17.95;17.08;;;18.90;67.90;;;;;;5074590;28;20516;-63
2020/12/18 12:50:07;;;;;;;15.18;14.48;;;18.50;67.60;;;;;;5074468;28;20120;-63
2020/12/18 12:52:34;;;;;;;55.38;53.13;;;19.10;67.20;;;;;;5074854;28;20554;-63
2020/12/18 12:55:01;;;;;;;110.13;105.43;;;19.10;67.30;;;;;;5055651;28;20086;-63